Time;durP1;ratioP1;P1;durP2;ratioP2;P2;SDS_P1;SDS_P2;PMS_P1;PMS_P2;Temp;Humidity;BMP_temperature;BMP_pressure;BME280_temperature;BME280_humidity;BME280_pressure;Samples;Min_cycle;Max_cycle;Signal;HPM_P1;HPM_P2
2023/05/31 00:02:19;;;;;;;2.30;2.10;;;17.60;51.90;;;;;;5032606;28;20178;-61
2023/05/31 00:04:44;;;;;;;3.60;2.50;;;17.80;52.30;;;;;;5033799;28;20182;-61
2023/05/31 00:07:10;;;;;;;3.63;2.00;;;17.80;52.40;;;;;;5032338;28;20277;-63
2023/05/31 00:09:36;;;;;;;2.57;2.00;;;17.80;52.30;;;;;;5033203;28;20774;-62
2023/05/31 00:12:01;;;;;;;3.13;2.00;;;17.80;52.30;;;;;;5028540;28;20186;-61
2023/05/31 00:14:27;;;;;;;2.13;1.90;;;17.80;52.10;;;;;;5029303;28;20193;-61
2023/05/31 00:16:52;;;;;;;2.63;2.20;;;17.80;52.00;;;;;;5031348;28;20302;-61
2023/05/31 00:19:18;;;;;;;2.83;2.03;;;17.80;52.10;;;;;;5030274;28;20312;-61
2023/05/31 00:21:45;;;;;;;2.57;2.37;;;17.90;52.50;;;;;;5030432;28;20189;-61
2023/05/31 00:24:11;;;;;;;2.85;2.00;;;18.80;53.10;;;;;;5028667;28;20536;-59
2023/05/31 00:26:37;;;;;;;3.50;2.70;;;17.70;52.20;;;;;;5029075;28;20193;-59
2023/05/31 00:29:02;;;;;;;3.77;2.20;;;17.60;52.20;;;;;;5030382;28;20276;-59
2023/05/31 00:31:28;;;;;;;5.43;2.10;;;17.40;52.10;;;;;;5029243;28;20193;-59
2023/05/31 00:33:53;;;;;;;4.30;2.30;;;17.60;52.40;;;;;;5026337;28;20190;-59
2023/05/31 00:36:19;;;;;;;2.73;2.07;;;17.60;52.20;;;;;;5023600;28;20218;-59
2023/05/31 00:38:45;;;;;;;2.43;2.20;;;17.60;52.10;;;;;;5028435;28;20182;-59
2023/05/31 00:41:10;;;;;;;2.90;1.80;;;17.60;52.40;;;;;;5027555;28;20286;-59
2023/05/31 00:43:36;;;;;;;4.50;2.20;;;17.50;52.00;;;;;;5031147;28;20297;-59
2023/05/31 00:46:02;;;;;;;3.73;1.77;;;17.50;52.10;;;;;;5027344;28;20524;-59
2023/05/31 00:48:29;;;;;;;2.67;2.23;;;17.50;52.00;;;;;;5034239;28;20212;-59
2023/05/31 00:50:55;;;;;;;2.72;2.00;;;17.40;52.90;;;;;;5030695;28;20202;-59
2023/05/31 00:53:22;;;;;;;2.43;2.13;;;17.70;52.80;;;;;;5031499;28;20278;-59
2023/05/31 00:55:48;;;;;;;6.30;2.42;;;17.60;52.10;;;;;;5035571;28;20284;-59
2023/05/31 00:58:16;;;;;;;2.40;1.90;;;17.20;51.60;;;;;;5029167;28;20251;-59
2023/05/31 01:00:42;;;;;;;3.17;2.15;;;17.40;52.00;;;;;;5029383;28;20214;-59
2023/05/31 01:03:09;;;;;;;3.42;2.47;;;17.40;52.30;;;;;;5032517;28;20197;-59
2023/05/31 01:05:35;;;;;;;4.60;2.50;;;17.30;52.60;;;;;;5032025;28;20181;-59
2023/05/31 01:08:02;;;;;;;2.50;1.90;;;17.30;52.80;;;;;;5030795;28;20533;-59
2023/05/31 01:10:28;;;;;;;4.57;2.20;;;17.20;52.80;;;;;;5029934;28;20290;-59
2023/05/31 01:13:10;;;;;;;3.30;2.13;;;17.20;53.10;;;;;;5032937;28;20193;-59
2023/05/31 01:15:51;;;;;;;3.35;2.40;;;16.90;52.70;;;;;;5024949;28;20796;-59
2023/05/31 01:18:36;;;;;;;2.80;2.45;;;17.20;53.10;;;;;;5033080;28;20252;-59
2023/05/31 01:21:03;;;;;;;4.35;2.58;;;17.20;53.20;;;;;;5029425;28;20198;-59
2023/05/31 01:23:45;;;;;;;5.13;2.40;;;17.10;53.30;;;;;;5030402;28;20181;-59
2023/05/31 01:26:13;;;;;;;2.72;2.00;;;17.20;53.50;;;;;;5038820;28;20214;-59
2023/05/31 01:28:41;;;;;;;2.42;2.20;;;16.90;53.40;;;;;;5033208;28;20243;-60
2023/05/31 01:31:14;;;;;;;2.40;1.95;;;17.20;54.30;;;;;;5032233;28;20210;-59
2023/05/31 01:33:41;;;;;;;4.75;2.10;;;17.00;54.20;;;;;;5031077;28;20720;-59
2023/05/31 01:36:06;;;;;;;2.38;2.05;;;16.90;54.50;;;;;;5024259;28;20902;-59
2023/05/31 01:38:32;;;;;;;4.23;2.30;;;17.00;54.40;;;;;;5030962;28;20238;-59
2023/05/31 01:40:58;;;;;;;3.13;2.13;;;16.70;54.60;;;;;;5030012;28;20239;-59
2023/05/31 01:43:25;;;;;;;6.53;2.37;;;16.90;54.20;;;;;;5033305;28;20186;-59
2023/05/31 01:45:53;;;;;;;3.10;1.95;;;16.80;54.20;;;;;;5028069;28;20528;-63
2023/05/31 01:48:19;;;;;;;3.00;1.73;;;16.90;53.80;;;;;;5030283;28;20550;-62
2023/05/31 01:50:45;;;;;;;4.60;3.60;;;16.60;54.00;;;;;;5033399;28;20206;-62
2023/05/31 01:53:11;;;;;;;2.20;2.00;;;16.80;55.00;;;;;;5035377;28;20570;-61
2023/05/31 01:55:36;;;;;;;3.43;2.33;;;16.60;55.10;;;;;;5030729;28;20193;-61
2023/05/31 01:58:04;;;;;;;3.83;2.17;;;16.60;55.20;;;;;;5030088;28;20246;-61
2023/05/31 02:00:30;;;;;;;3.35;2.50;;;16.40;55.60;;;;;;5029288;28;20202;-61
2023/05/31 02:02:57;;;;;;;2.50;2.03;;;16.50;57.80;;;;;;5031671;28;20607;-61
2023/05/31 02:05:23;;;;;;;4.55;2.78;;;16.20;58.80;;;;;;5034279;28;20638;-61
2023/05/31 02:07:48;;;;;;;2.77;2.53;;;16.20;59.40;;;;;;5028824;28;20221;-61
2023/05/31 02:10:15;;;;;;;3.93;2.10;;;16.10;61.10;;;;;;5032757;28;20612;-60
2023/05/31 02:12:40;;;;;;;3.63;2.30;;;16.00;61.80;;;;;;5033754;28;20216;-60
2023/05/31 02:15:13;;;;;;;3.07;2.30;;;16.00;58.80;;;;;;5029239;28;20655;-61
2023/05/31 02:17:42;;;;;;;2.92;2.60;;;15.80;57.90;;;;;;5031812;28;20275;-61
2023/05/31 02:20:13;;;;;;;4.30;2.40;;;15.90;57.90;;;;;;5029971;28;20686;-61
2023/05/31 02:22:40;;;;;;;3.13;2.50;;;15.60;57.40;;;;;;5030097;28;20182;-62
2023/05/31 02:25:11;;;;;;;2.75;2.38;;;16.00;57.40;;;;;;5030292;28;20182;-61
2023/05/31 02:27:37;;;;;;;4.30;2.15;;;16.00;57.60;;;;;;5034559;28;20221;-61
2023/05/31 02:30:07;;;;;;;3.25;1.95;;;16.00;57.30;;;;;;5071864;22;20247;-86
2023/05/31 02:32:37;;;;;;;3.20;2.28;;;15.80;57.30;;;;;;5035215;28;20208;-86
2023/05/31 02:35:10;;;;;;;3.33;2.38;;;15.50;57.00;;;;;;5048042;28;20552;-86
2023/05/31 02:37:37;;;;;;;2.60;2.10;;;16.00;57.30;;;;;;5045826;28;20610;-86
2023/05/31 02:40:13;;;;;;;3.70;2.40;;;15.70;57.50;;;;;;5048300;28;20198;-86
2023/05/31 02:42:40;;;;;;;3.55;2.60;;;15.80;57.20;;;;;;5049867;28;20706;-86
2023/05/31 02:45:08;;;;;;;3.85;2.10;;;16.10;57.50;;;;;;5051673;28;20234;-86
2023/05/31 02:47:35;;;;;;;2.05;1.85;;;15.90;57.70;;;;;;5049781;28;20186;-86
2023/05/31 02:50:00;;;;;;;1.92;1.80;;;15.80;57.60;;;;;;5065998;28;20540;-86
2023/05/31 02:52:26;;;;;;;2.80;1.87;;;15.70;57.80;;;;;;5049880;28;20216;-86
2023/05/31 02:54:52;;;;;;;3.07;2.10;;;15.70;57.60;;;;;;5052453;28;20522;-86
2023/05/31 02:57:17;;;;;;;2.50;2.03;;;16.00;58.80;;;;;;5051025;28;20739;-86
2023/05/31 02:59:44;;;;;;;4.60;2.50;;;15.50;58.70;;;;;;5052621;28;20576;-86
2023/05/31 03:02:10;;;;;;;4.78;2.75;;;15.90;59.90;;;;;;5053723;28;20661;-86
2023/05/31 03:04:36;;;;;;;3.50;2.70;;;15.60;59.00;;;;;;5053255;28;20188;-86
2023/05/31 03:07:01;;;;;;;3.22;2.28;;;15.50;61.40;;;;;;5051250;28;20225;-86
2023/05/31 03:09:27;;;;;;;3.60;2.90;;;15.50;64.00;;;;;;5052782;28;20174;-86
2023/05/31 03:11:52;;;;;;;3.60;2.00;;;15.20;66.20;;;;;;5055524;28;20201;-86
2023/05/31 03:14:18;;;;;;;6.50;2.93;;;15.60;66.40;;;;;;5055594;28;20650;-86
2023/05/31 03:16:44;;;;;;;2.80;2.17;;;15.10;66.10;;;;;;5051487;28;20213;-86
2023/05/31 03:19:12;;;;;;;6.80;3.47;;;15.30;67.20;;;;;;5051713;28;20197;-86
2023/05/31 03:21:38;;;;;;;3.55;2.38;;;15.30;67.80;;;;;;5054311;28;20262;-86
2023/05/31 03:24:04;;;;;;;3.27;2.97;;;15.00;67.80;;;;;;5053143;28;20276;-86
2023/05/31 03:26:30;;;;;;;3.70;2.58;;;15.00;68.30;;;;;;5052146;28;20638;-86
2023/05/31 03:28:55;;;;;;;3.00;2.27;;;15.30;69.30;;;;;;5051148;28;20200;-86
2023/05/31 03:31:21;;;;;;;4.30;2.67;;;14.60;68.90;;;;;;5050909;28;20644;-86
2023/05/31 03:33:46;;;;;;;4.80;2.57;;;14.50;69.50;;;;;;5052222;28;20181;-86
2023/05/31 03:36:11;;;;;;;4.07;2.30;;;14.40;70.10;;;;;;5051241;28;20193;-86
2023/05/31 03:38:37;;;;;;;3.00;2.27;;;14.60;70.80;;;;;;5049580;28;20235;-86
2023/05/31 03:41:02;;;;;;;3.20;2.50;;;14.60;71.10;;;;;;5050365;28;20181;-86
2023/05/31 03:43:28;;;;;;;3.60;2.20;;;15.30;72.30;;;;;;5050401;28;20291;-86
2023/05/31 03:45:54;;;;;;;4.27;2.63;;;14.60;71.20;;;;;;5048288;28;20186;-87
2023/05/31 03:48:19;;;;;;;6.13;2.77;;;14.50;71.00;;;;;;5061188;28;20208;-86
2023/05/31 03:50:44;;;;;;;3.03;2.73;;;14.80;72.00;;;;;;5059426;28;20184;-85
2023/05/31 03:53:10;;;;;;;4.00;2.40;;;14.40;72.20;;;;;;5052537;28;20219;-86
2023/05/31 03:55:36;;;;;;;3.90;2.40;;;14.70;72.30;;;;;;5052966;28;20620;-86
2023/05/31 03:58:02;;;;;;;3.70;2.57;;;14.60;72.30;;;;;;5052522;28;20200;-86
2023/05/31 04:00:28;;;;;;;5.57;2.70;;;14.40;72.80;;;;;;5064087;28;20177;-86
2023/05/31 04:02:54;;;;;;;4.57;3.13;;;14.50;73.80;;;;;;5054711;28;20197;-86
2023/05/31 04:05:20;;;;;;;3.23;2.70;;;14.60;73.50;;;;;;5049801;28;20174;-86
2023/05/31 04:07:45;;;;;;;3.40;2.70;;;15.80;74.60;;;;;;5050711;28;20509;-86
2023/05/31 04:10:11;;;;;;;4.33;2.97;;;14.60;75.30;;;;;;5049466;28;20190;-86
2023/05/31 04:12:36;;;;;;;3.50;2.27;;;14.80;73.90;;;;;;5051756;28;20245;-86
2023/05/31 04:15:02;;;;;;;3.40;2.50;;;14.50;73.40;;;;;;5067380;28;20197;-86
2023/05/31 04:17:28;;;;;;;2.33;2.13;;;14.80;72.50;;;;;;5056888;28;20188;-85
2023/05/31 04:19:53;;;;;;;2.20;2.00;;;15.50;67.80;;;;;;5068686;28;20899;-86
2023/05/31 04:22:20;;;;;;;3.00;2.30;;;15.40;68.10;;;;;;5056373;28;20216;-85
2023/05/31 04:24:46;;;;;;;2.20;1.92;;;15.40;66.40;;;;;;5067172;28;20185;-86
2023/05/31 04:27:18;;;;;;;1.93;1.80;;;15.40;64.20;;;;;;5069658;28;20173;-85
2023/05/31 04:29:45;;;;;;;2.40;1.80;;;15.70;63.80;;;;;;5068688;28;20198;-86
2023/05/31 04:32:14;;;;;;;4.78;2.50;;;15.60;62.90;;;;;;5066624;28;20205;-86
2023/05/31 04:34:40;;;;;;;4.07;2.50;;;15.70;62.20;;;;;;5055215;28;20207;-86
2023/05/31 04:37:07;;;;;;;3.63;1.60;;;15.80;61.70;;;;;;5059846;28;20201;-86
2023/05/31 04:39:32;;;;;;;3.03;2.00;;;15.90;61.50;;;;;;5055463;28;20178;-86
2023/05/31 04:41:59;;;;;;;3.67;2.23;;;16.10;61.80;;;;;;5054161;28;20735;-86
2023/05/31 04:44:24;;;;;;;3.83;2.17;;;15.90;61.50;;;;;;5050622;28;20300;-86
2023/05/31 04:46:50;;;;;;;3.77;2.40;;;15.80;60.70;;;;;;5051120;28;20189;-85
2023/05/31 04:49:16;;;;;;;2.33;2.13;;;16.10;61.30;;;;;;5048380;28;20189;-86
2023/05/31 04:51:41;;;;;;;3.43;2.20;;;16.20;61.10;;;;;;5051241;28;20247;-86
2023/05/31 04:54:08;;;;;;;2.83;1.93;;;16.40;61.50;;;;;;5054530;28;20517;-86
2023/05/31 04:56:33;;;;;;;2.67;2.10;;;16.20;61.90;;;;;;5056871;28;20181;-86
2023/05/31 04:59:00;;;;;;;4.90;2.03;;;16.30;60.90;;;;;;5063373;28;20181;-86
2023/05/31 05:01:26;;;;;;;4.47;2.83;;;16.10;61.20;;;;;;5066007;28;20646;-86
2023/05/31 05:03:52;;;;;;;5.70;2.58;;;16.10;62.30;;;;;;5053817;28;20177;-86
2023/05/31 05:06:18;;;;;;;4.70;2.70;;;16.30;63.00;;;;;;5036054;28;20188;-86
2023/05/31 05:08:45;;;;;;;5.47;2.10;;;16.80;63.00;;;;;;5051035;28;20178;-86
2023/05/31 05:11:18;;;;;;;3.22;2.22;;;16.60;60.50;;;;;;5051395;28;20286;-88
2023/05/31 05:13:43;;;;;;;3.63;2.70;;;17.10;62.80;;;;;;5049852;28;20189;-86
2023/05/31 05:16:09;;;;;;;4.00;2.17;;;16.90;60.30;;;;;;5049786;28;20273;-86
2023/05/31 05:18:36;;;;;;;3.93;2.07;;;17.00;58.80;;;;;;5051593;28;20259;-86
2023/05/31 05:21:01;;;;;;;3.10;2.25;;;16.70;58.30;;;;;;5063360;28;20193;-87
2023/05/31 05:23:27;;;;;;;3.00;2.40;;;16.90;58.60;;;;;;5048637;28;20197;-87
2023/05/31 05:25:52;;;;;;;5.23;2.40;;;16.70;58.50;;;;;;5048115;28;20182;-86
2023/05/31 05:28:18;;;;;;;2.57;2.17;;;16.80;58.00;;;;;;5045446;28;21647;-86
2023/05/31 05:30:44;;;;;;;3.17;2.47;;;16.90;58.10;;;;;;5049364;28;20339;-86
2023/05/31 05:33:10;;;;;;;3.10;2.63;;;17.20;58.30;;;;;;5053957;28;20262;-86
2023/05/31 05:35:36;;;;;;;6.87;2.80;;;17.40;58.60;;;;;;5054207;28;20247;-84
2023/05/31 05:38:01;;;;;;;3.13;2.50;;;17.30;58.60;;;;;;5050500;28;20363;-84
2023/05/31 05:40:27;;;;;;;4.13;2.07;;;17.60;58.60;;;;;;5051402;28;20182;-84
2023/05/31 05:42:53;;;;;;;3.23;2.40;;;17.50;58.00;;;;;;5055381;28;20247;-84
2023/05/31 05:45:19;;;;;;;3.90;2.38;;;17.50;58.00;;;;;;5054124;28;20178;-84
2023/05/31 05:47:45;;;;;;;3.97;2.47;;;17.60;58.00;;;;;;5049484;28;20393;-84
2023/05/31 05:50:11;;;;;;;5.70;2.60;;;17.60;58.20;;;;;;5051212;28;20513;-88
2023/05/31 05:52:38;;;;;;;2.85;2.35;;;17.40;58.50;;;;;;5056691;22;20291;-64
2023/05/31 05:55:04;;;;;;;4.25;2.10;;;17.50;57.70;;;;;;5045857;28;20177;-66
2023/05/31 05:57:30;;;;;;;4.70;2.28;;;17.30;56.50;;;;;;5044865;28;20745;-66
2023/05/31 05:59:56;;;;;;;3.67;2.30;;;17.50;56.60;;;;;;5054572;28;21030;-66
2023/05/31 06:02:23;;;;;;;5.60;2.60;;;17.60;57.40;;;;;;5047021;28;20537;-67
2023/05/31 06:04:49;;;;;;;4.97;2.53;;;17.70;57.40;;;;;;5049666;28;20264;-66
2023/05/31 06:07:16;;;;;;;7.97;3.20;;;18.00;57.10;;;;;;5047951;28;20188;-67
2023/05/31 06:09:42;;;;;;;4.10;2.10;;;17.80;56.90;;;;;;5047774;28;20302;-67
2023/05/31 06:12:08;;;;;;;2.33;2.10;;;17.80;56.10;;;;;;5045689;28;20803;-66
2023/05/31 06:14:33;;;;;;;4.20;2.10;;;17.80;55.90;;;;;;5050762;28;20272;-69
2023/05/31 06:16:59;;;;;;;4.87;2.10;;;18.20;56.50;;;;;;5043519;28;20827;-70
2023/05/31 06:19:25;;;;;;;3.93;2.47;;;17.90;56.40;;;;;;5050141;28;20328;-70
2023/05/31 06:21:51;;;;;;;3.70;2.57;;;18.10;56.80;;;;;;5044230;28;20204;-70
2023/05/31 06:24:17;;;;;;;4.25;2.42;;;18.20;56.60;;;;;;5049270;28;20194;-70
2023/05/31 06:26:43;;;;;;;3.33;2.10;;;18.30;56.50;;;;;;5046958;28;20542;-70
2023/05/31 06:29:09;;;;;;;3.50;2.50;;;18.40;56.30;;;;;;5046774;28;20720;-70
2023/05/31 06:31:35;;;;;;;3.17;2.60;;;18.70;56.10;;;;;;5047838;28;20226;-70
2023/05/31 06:34:02;;;;;;;3.28;2.22;;;18.40;56.10;;;;;;5046587;28;20527;-70
2023/05/31 06:36:28;;;;;;;4.97;2.30;;;18.60;56.10;;;;;;5046547;28;20178;-70
2023/05/31 06:38:54;;;;;;;7.40;2.58;;;18.50;56.00;;;;;;5045775;28;20197;-69
2023/05/31 06:41:20;;;;;;;4.50;2.50;;;18.60;55.90;;;;;;5049129;28;20201;-69
2023/05/31 06:43:46;;;;;;;2.83;2.50;;;18.60;55.50;;;;;;5045357;28;20204;-68
2023/05/31 06:46:12;;;;;;;3.60;2.73;;;18.80;55.80;;;;;;5047098;28;20549;-70
2023/05/31 06:48:38;;;;;;;3.05;2.30;;;19.00;55.70;;;;;;5047186;28;20560;-70
2023/05/31 06:51:03;;;;;;;5.80;3.00;;;19.20;55.20;;;;;;5047770;28;20209;-70
2023/05/31 06:53:29;;;;;;;7.77;3.27;;;19.40;54.60;;;;;;5042746;28;20229;-70
2023/05/31 06:55:55;;;;;;;3.37;2.77;;;19.90;54.80;;;;;;5047872;28;20185;-72
2023/05/31 06:58:21;;;;;;;3.50;2.40;;;19.80;54.30;;;;;;5048747;28;20849;-70
2023/05/31 07:00:47;;;;;;;3.47;2.80;;;20.00;53.70;;;;;;5042809;28;20204;-67
2023/05/31 07:03:12;;;;;;;3.43;3.03;;;20.70;53.50;;;;;;5046384;28;20252;-67
2023/05/31 07:05:40;;;;;;;8.03;2.60;;;21.20;52.90;;;;;;5047107;28;20182;-67
2023/05/31 07:08:06;;;;;;;4.17;2.70;;;22.90;50.10;;;;;;5047028;28;20178;-67
2023/05/31 07:10:31;;;;;;;5.13;2.73;;;25.80;47.60;;;;;;5047641;28;20562;-67
2023/05/31 07:12:57;;;;;;;5.00;2.73;;;27.50;42.50;;;;;;5045674;28;20676;-68
2023/05/31 07:15:22;;;;;;;3.77;2.40;;;28.90;40.70;;;;;;5043836;28;20177;-68
2023/05/31 08:30:15;;;;;;;3.30;2.80;;;33.80;29.70;;;;;;5033488;28;20460;-83
2023/05/31 08:32:44;;;;;;;2.90;2.63;;;33.20;30.90;;;;;;5043415;28;20467;-83
2023/05/31 08:35:09;;;;;;;3.83;2.80;;;35.40;31.60;;;;;;5038043;28;20190;-82
2023/05/31 08:37:39;;;;;;;4.03;2.90;;;34.70;30.80;;;;;;5033973;28;20483;-84
2023/05/31 08:40:05;;;;;;;7.00;2.80;;;35.80;29.50;;;;;;5028005;28;20195;-83
2023/05/31 08:42:46;;;;;;;8.73;3.20;;;35.60;29.40;;;;;;5036415;28;20461;-83
2023/05/31 08:45:11;;;;;;;3.30;2.47;;;36.60;29.10;;;;;;5037740;28;20440;-83
2023/05/31 08:47:48;;;;;;;10.50;4.03;;;37.40;29.80;;;;;;5039167;28;20481;-83
2023/05/31 08:50:14;;;;;;;4.10;3.20;;;35.80;28.70;;;;;;5039790;28;20289;-83
2023/05/31 08:52:40;;;;;;;2.90;2.37;;;35.00;28.30;;;;;;5021181;28;20493;-83
2023/05/31 08:55:07;;;;;;;5.90;3.60;;;34.70;29.50;;;;;;5037227;28;20429;-84
2023/05/31 08:57:34;;;;;;;7.83;3.13;;;35.30;29.00;;;;;;5037053;28;20198;-84
2023/05/31 09:00:10;;;;;;;3.07;2.77;;;36.60;29.10;;;;;;5037480;28;20499;-84
2023/05/31 09:02:37;;;;;;;3.40;2.70;;;35.50;28.80;;;;;;5028681;28;20469;-84
2023/05/31 09:05:04;;;;;;;6.73;4.57;;;36.00;28.80;;;;;;5036685;28;20464;-84
2023/05/31 09:07:30;;;;;;;6.60;5.87;;;35.80;29.10;;;;;;5033528;28;20445;-83
2023/05/31 09:09:56;;;;;;;8.00;3.50;;;34.10;29.10;;;;;;5039793;28;20967;-83
2023/05/31 09:12:21;;;;;;;3.90;2.70;;;35.90;30.30;;;;;;5028167;28;20207;-83
2023/05/31 09:14:48;;;;;;;4.23;3.83;;;35.10;29.70;;;;;;5039245;28;20181;-83
2023/05/31 09:17:13;;;;;;;6.23;3.10;;;35.20;29.30;;;;;;5013807;28;20206;-84
2023/05/31 09:19:52;;;;;;;2.83;2.60;;;35.00;29.00;;;;;;5035794;28;20446;-84
2023/05/31 09:22:26;;;;;;;3.50;2.57;;;34.70;29.60;;;;;;5027743;28;20214;-83
2023/05/31 09:24:56;;;;;;;3.93;2.53;;;35.30;29.10;;;;;;5026424;28;20464;-84
2023/05/31 09:27:23;;;;;;;3.20;2.73;;;34.10;29.40;;;;;;5050483;28;20507;-83
2023/05/31 09:30:21;;;;;;;4.83;3.00;;;35.90;29.60;;;;;;5043259;28;20484;-84
2023/05/31 09:32:56;;;;;;;3.50;3.20;;;34.00;29.80;;;;;;5015486;28;20460;-84
2023/05/31 09:35:34;;;;;;;;;;;;;;;;;;;;;
2023/05/31 09:41:24;;;;;;;5.40;3.10;;;35.10;29.60;;;;;;5008807;28;20432;-84
2023/05/31 09:45:03;;;;;;;;;;;;;;;;;;;;;
2023/05/31 09:51:21;;;;;;;3.73;2.90;;;35.10;29.20;;;;;;4937748;28;20816;-84
2023/05/31 09:54:06;;;;;;;;;;;;;;;;;;;;;
2023/05/31 14:22:07;;;;;;;3.60;2.30;;;25.60;30.70;;;;;;5889715;23;20526;-88
2023/05/31 14:24:33;;;;;;;3.80;2.10;;;25.60;31.10;;;;;;4930983;28;20478;-88
2023/05/31 14:26:59;;;;;;;3.93;1.70;;;25.40;31.30;;;;;;4932999;29;20488;-88
2023/05/31 14:29:27;;;;;;;4.03;1.97;;;25.50;30.90;;;;;;4918236;29;20452;-90
2023/05/31 14:31:53;;;;;;;3.50;1.97;;;25.40;31.10;;;;;;4908791;29;20210;-89
2023/05/31 14:34:18;;;;;;;2.17;1.97;;;25.80;31.90;;;;;;4881898;29;20541;-88
2023/05/31 14:36:44;;;;;;;3.57;2.37;;;26.10;32.00;;;;;;4910426;23;20598;-86
2023/05/31 14:39:10;;;;;;;3.80;2.47;;;25.60;32.40;;;;;;4915365;29;20238;-83
2023/05/31 14:41:36;;;;;;;4.13;1.93;;;26.10;32.20;;;;;;4896361;29;20257;-83
2023/05/31 14:44:02;;;;;;;2.50;2.30;;;25.70;31.50;;;;;;4886643;29;20242;-84
2023/05/31 14:46:28;;;;;;;5.03;2.30;;;25.70;31.40;;;;;;4883416;29;20442;-87
2023/05/31 14:48:53;;;;;;;4.10;1.97;;;25.90;32.00;;;;;;4883831;29;20218;-83
2023/05/31 14:51:19;;;;;;;2.43;2.23;;;25.80;32.10;;;;;;4884903;29;20195;-84
2023/05/31 14:53:46;;;;;;;3.20;2.20;;;25.70;32.20;;;;;;4899389;29;20205;-84
2023/05/31 14:56:12;;;;;;;2.50;2.07;;;25.60;32.10;;;;;;4886158;29;20455;-89
2023/05/31 14:58:37;;;;;;;2.80;2.37;;;25.90;32.40;;;;;;4883614;29;20606;-84
2023/05/31 15:01:03;;;;;;;2.80;1.90;;;25.70;32.00;;;;;;4864965;29;20291;-84
2023/05/31 15:03:28;;;;;;;3.20;2.30;;;25.60;31.70;;;;;;4882873;29;20194;-84
2023/05/31 15:05:54;;;;;;;3.13;2.20;;;26.40;32.30;;;;;;4886593;29;20190;-84
2023/05/31 15:08:19;;;;;;;4.93;2.37;;;25.80;32.50;;;;;;4897407;29;20404;-83
2023/05/31 15:10:45;;;;;;;2.40;2.20;;;25.70;32.80;;;;;;4887425;29;20655;-84
2023/05/31 15:13:10;;;;;;;2.90;2.67;;;25.60;32.60;;;;;;4883384;29;20222;-83
2023/05/31 15:15:37;;;;;;;2.93;2.43;;;25.70;32.30;;;;;;4889388;29;20205;-80
2023/05/31 15:18:03;;;;;;;2.20;1.93;;;25.60;31.70;;;;;;4887233;29;20204;-81
2023/05/31 15:20:29;;;;;;;2.80;2.60;;;25.90;31.90;;;;;;4886353;29;21031;-79
2023/05/31 15:22:55;;;;;;;3.00;2.23;;;25.70;31.70;;;;;;4881929;29;20502;-81
2023/05/31 15:25:22;;;;;;;2.83;2.30;;;25.60;31.60;;;;;;4901460;29;21015;-80
2023/05/31 15:27:47;;;;;;;2.53;1.97;;;25.30;32.00;;;;;;4902226;29;20202;-81
2023/05/31 15:30:13;;;;;;;2.90;2.70;;;25.30;32.40;;;;;;4909924;29;20449;-81
2023/05/31 15:32:39;;;;;;;2.53;2.33;;;25.30;32.80;;;;;;4897134;29;20210;-80
2023/05/31 15:35:05;;;;;;;2.50;2.30;;;25.40;33.60;;;;;;4909693;29;20283;-80
2023/05/31 15:37:33;;;;;;;2.57;1.93;;;25.40;33.00;;;;;;4921851;29;20804;-81
2023/05/31 15:39:58;;;;;;;2.20;2.00;;;25.40;33.20;;;;;;4890497;29;20450;-80
2023/05/31 15:42:25;;;;;;;3.20;2.30;;;25.40;33.00;;;;;;4890723;29;20825;-82
2023/05/31 15:44:50;;;;;;;3.40;2.40;;;25.60;33.50;;;;;;4883363;29;20282;-82
2023/05/31 15:47:16;;;;;;;3.87;2.43;;;25.80;32.70;;;;;;4885285;29;20947;-82
2023/05/31 15:49:43;;;;;;;2.20;2.00;;;25.40;32.80;;;;;;4870403;29;20453;-82
2023/05/31 15:52:09;;;;;;;4.10;2.63;;;25.40;32.90;;;;;;4916417;29;20215;-82
2023/05/31 15:54:34;;;;;;;4.53;2.20;;;25.30;32.20;;;;;;4885526;29;20445;-84
2023/05/31 15:57:01;;;;;;;2.50;2.30;;;25.50;32.20;;;;;;4885843;29;20205;-82
2023/05/31 15:59:26;;;;;;;5.43;2.30;;;25.10;32.50;;;;;;4900509;29;20181;-83
2023/05/31 16:01:53;;;;;;;3.97;2.17;;;25.00;33.00;;;;;;4887381;29;20480;-83
2023/05/31 16:04:18;;;;;;;4.23;2.70;;;25.10;33.10;;;;;;4899529;29;20529;-83
2023/05/31 16:06:44;;;;;;;5.70;2.57;;;25.40;33.60;;;;;;4886259;29;20450;-82
2023/05/31 16:09:09;;;;;;;2.37;2.17;;;25.60;34.00;;;;;;4902702;29;20204;-83
2023/05/31 16:11:35;;;;;;;3.10;2.40;;;25.60;34.20;;;;;;4885055;29;20221;-83
2023/05/31 16:14:01;;;;;;;3.50;2.40;;;25.70;34.50;;;;;;4883589;29;20205;-83
2023/05/31 16:16:27;;;;;;;2.43;2.23;;;25.20;34.40;;;;;;4903526;29;20942;-83
2023/05/31 16:18:53;;;;;;;3.57;2.57;;;25.80;34.70;;;;;;4913608;29;20724;-83
2023/05/31 16:21:19;;;;;;;2.67;2.10;;;25.50;34.40;;;;;;4880938;29;20200;-83
2023/05/31 16:23:45;;;;;;;2.50;2.20;;;25.30;34.20;;;;;;4885711;29;20449;-83
2023/05/31 16:26:11;;;;;;;3.60;2.10;;;25.20;34.10;;;;;;4898204;29;20202;-83
2023/05/31 16:28:36;;;;;;;4.10;2.43;;;25.50;34.50;;;;;;4885374;29;20452;-83
2023/05/31 16:31:02;;;;;;;3.10;2.30;;;25.30;33.90;;;;;;4898600;29;20321;-83
2023/05/31 16:33:28;;;;;;;3.07;2.63;;;25.50;34.50;;;;;;4900736;29;20201;-83
2023/05/31 16:35:53;;;;;;;2.93;2.10;;;25.80;35.10;;;;;;4887085;29;20415;-82
2023/05/31 16:38:19;;;;;;;2.97;2.17;;;25.20;33.90;;;;;;4904884;29;20228;-82
2023/05/31 16:40:44;;;;;;;6.43;2.30;;;25.20;34.20;;;;;;4917407;29;20186;-82
2023/05/31 16:43:10;;;;;;;2.77;2.50;;;25.10;34.20;;;;;;4905948;29;20220;-82
2023/05/31 16:45:35;;;;;;;3.83;2.33;;;25.30;34.40;;;;;;4902416;29;20291;-82
2023/05/31 16:48:01;;;;;;;3.90;2.40;;;25.60;34.80;;;;;;4896921;29;20189;-82
2023/05/31 16:50:26;;;;;;;2.63;2.20;;;25.60;35.00;;;;;;4886828;29;20203;-81
2023/05/31 16:52:52;;;;;;;2.70;2.37;;;25.30;34.30;;;;;;4889312;29;20206;-81
2023/05/31 16:55:21;;;;;;;2.50;2.30;;;25.70;34.90;;;;;;4894465;29;20275;-81
2023/05/31 16:57:47;;;;;;;4.10;2.83;;;24.90;34.50;;;;;;4888804;29;20221;-83
2023/05/31 17:00:14;;;;;;;4.20;2.37;;;24.90;34.40;;;;;;4882691;29;20462;-82
2023/05/31 17:02:40;;;;;;;2.63;2.40;;;24.90;34.20;;;;;;4891252;29;20562;-83
2023/05/31 17:05:06;;;;;;;2.70;2.47;;;25.00;34.10;;;;;;4883238;29;20919;-83
2023/05/31 17:07:33;;;;;;;5.57;2.67;;;24.80;34.10;;;;;;4898387;29;20192;-82
2023/05/31 17:09:58;;;;;;;3.43;2.33;;;25.20;33.80;;;;;;4894206;29;20464;-82
2023/05/31 17:12:24;;;;;;;2.80;2.40;;;24.90;34.00;;;;;;4886190;29;20462;-82
2023/05/31 17:14:49;;;;;;;4.30;2.87;;;25.20;33.90;;;;;;4886439;29;20192;-82
2023/05/31 17:17:15;;;;;;;4.30;2.23;;;24.80;33.80;;;;;;4892822;29;20221;-82
2023/05/31 17:19:40;;;;;;;4.77;2.90;;;24.80;33.60;;;;;;4887616;29;20202;-82
2023/05/31 17:22:06;;;;;;;3.07;2.43;;;24.80;33.70;;;;;;4893325;29;20220;-82
2023/05/31 17:24:32;;;;;;;2.90;2.67;;;24.70;33.90;;;;;;4886360;29;21202;-82
2023/05/31 17:26:57;;;;;;;2.83;2.63;;;24.80;34.10;;;;;;4903302;29;20195;-82
2023/05/31 17:29:23;;;;;;;3.90;2.77;;;24.80;34.50;;;;;;4890779;29;20609;-82
2023/05/31 17:31:48;;;;;;;4.57;2.97;;;25.10;34.40;;;;;;4914727;29;20322;-83
2023/05/31 17:34:14;;;;;;;3.63;3.13;;;24.80;34.50;;;;;;4887628;29;20184;-82
2023/05/31 17:36:40;;;;;;;3.00;2.60;;;24.70;34.70;;;;;;4887020;29;20211;-82
2023/05/31 17:39:05;;;;;;;4.40;2.30;;;25.00;35.20;;;;;;4896982;29;20219;-82
2023/05/31 17:41:31;;;;;;;2.90;2.60;;;24.70;35.20;;;;;;4882942;29;20244;-82
2023/05/31 17:43:57;;;;;;;2.97;2.77;;;24.70;35.30;;;;;;4892004;29;20190;-82
2023/05/31 17:46:23;;;;;;;2.90;2.50;;;25.00;35.80;;;;;;4883145;29;20186;-82
2023/05/31 17:48:48;;;;;;;2.77;2.57;;;24.60;35.40;;;;;;4916955;29;20826;-82
2023/05/31 17:51:14;;;;;;;4.67;2.80;;;24.50;35.50;;;;;;4915635;29;20201;-82
2023/05/31 17:53:40;;;;;;;3.00;2.70;;;25.10;35.50;;;;;;4884898;29;20196;-82
2023/05/31 17:56:06;;;;;;;4.60;2.87;;;24.60;35.40;;;;;;4895736;29;20677;-83
2023/05/31 17:58:31;;;;;;;6.37;2.80;;;24.90;35.80;;;;;;4892975;29;20487;-82
2023/05/31 18:00:57;;;;;;;3.00;2.70;;;24.80;35.70;;;;;;4890149;29;20191;-82
2023/05/31 18:03:24;;;;;;;4.23;2.60;;;24.50;35.70;;;;;;4894517;29;20693;-82
2023/05/31 18:05:49;;;;;;;2.70;2.50;;;24.00;35.50;;;;;;4890726;29;20564;-82
2023/05/31 18:08:15;;;;;;;5.77;2.40;;;24.40;35.80;;;;;;4900639;29;20448;-82
2023/05/31 18:10:41;;;;;;;3.40;2.70;;;24.60;36.20;;;;;;4884604;29;20196;-82
2023/05/31 18:13:06;;;;;;;3.73;2.70;;;24.70;36.50;;;;;;4887631;29;20208;-82
2023/05/31 18:15:31;;;;;;;3.77;2.60;;;24.50;36.60;;;;;;4881279;29;20188;-83
2023/05/31 18:17:57;;;;;;;5.30;2.73;;;24.60;36.70;;;;;;4895913;29;20589;-83
2023/05/31 18:20:22;;;;;;;3.47;2.70;;;24.70;37.00;;;;;;4884745;29;20178;-82
2023/05/31 18:22:48;;;;;;;4.07;2.70;;;24.30;36.70;;;;;;4882912;29;20219;-83
2023/05/31 18:25:13;;;;;;;4.40;3.10;;;24.20;36.90;;;;;;4885556;29;20194;-83
2023/05/31 18:27:39;;;;;;;3.20;2.90;;;24.60;37.50;;;;;;4918652;29;20403;-83
2023/05/31 18:30:05;;;;;;;3.93;2.73;;;24.20;37.20;;;;;;4887091;29;20224;-83
2023/05/31 18:32:31;;;;;;;2.70;2.40;;;24.20;37.30;;;;;;4889073;29;20216;-83
2023/05/31 18:34:57;;;;;;;2.60;2.40;;;24.10;37.50;;;;;;4882065;29;20480;-83